createdAt,value
2022-08-16T11:42:16.792Z,64.50
2022-08-16T11:59:12.760Z,60.90
2022-08-16T12:01:58.926Z,60.00
2022-08-16T12:04:35.004Z,61.40
2022-08-16T12:07:29.834Z,61.50
2022-08-16T12:10:43.267Z,60.10
2022-08-16T12:16:21.202Z,60.40
2022-08-16T12:24:18.030Z,60.60
2022-08-16T12:29:38.974Z,59.60
2022-08-16T12:32:38.215Z,59.60
2022-08-16T12:35:40.370Z,59.80
2022-08-16T12:38:40.897Z,59.90
2022-08-16T12:42:19.140Z,61.00
2022-08-16T12:44:41.241Z,59.60
2022-08-16T12:50:33.156Z,59.50
2022-08-16T12:53:00.509Z,58.40
2022-08-16T12:55:41.969Z,59.50
2022-08-16T12:58:13.910Z,59.70
2022-08-16T13:01:01.837Z,59.40
2022-08-16T13:03:41.031Z,60.30
2022-08-16T13:11:55.121Z,61.90
2022-08-16T13:14:31.178Z,63.10
2022-08-16T13:17:09.588Z,63.10
2022-08-16T13:22:37.619Z,63.40
2022-08-16T13:25:55.850Z,64.10
2022-08-16T13:31:41.969Z,64.40
2022-08-16T13:34:18.464Z,64.30
2022-08-16T13:36:56.110Z,63.40
2022-08-16T13:42:43.252Z,62.60
2022-08-16T13:50:51.794Z,61.90
2022-08-16T13:53:36.868Z,62.70
2022-08-16T13:56:25.017Z,62.70
2022-08-16T13:59:21.222Z,64.00
2022-08-16T14:02:02.634Z,64.60
2022-08-16T14:04:41.808Z,64.70
2022-08-16T14:07:45.905Z,64.70
2022-08-16T14:12:59.512Z,64.50
2022-08-16T14:15:36.507Z,65.10
2022-08-16T14:21:21.935Z,66.20
2022-08-16T14:24:02.564Z,66.60
2022-08-16T14:27:05.573Z,66.60
2022-08-16T14:33:06.890Z,66.80
2022-08-16T14:35:50.121Z,66.80
2022-08-16T14:38:29.799Z,66.60
2022-08-16T14:50:32.318Z,67.80
2022-08-16T14:53:05.311Z,67.90
2022-08-16T14:58:34.489Z,67.90
2022-08-16T15:01:12.327Z,67.50
2022-08-16T15:03:45.087Z,67.10
2022-08-16T15:06:21.943Z,66.40
2022-08-16T15:09:03.974Z,66.70
2022-08-16T15:11:55.938Z,66.60
2022-08-16T15:17:15.790Z,67.10
2022-08-16T15:20:11.577Z,67.10
2022-08-16T15:22:57.994Z,67.70
2022-08-16T15:25:46.979Z,67.70
2022-08-16T15:31:19.366Z,68.30
2022-08-16T15:33:56.715Z,68.00
2022-08-16T15:36:29.938Z,68.20
2022-08-16T15:39:35.378Z,68.30
2022-08-16T15:42:01.199Z,67.80
2022-08-16T15:44:50.888Z,67.70
2022-08-16T15:47:39.663Z,67.60
2022-08-16T15:50:22.516Z,67.40
2022-08-16T15:52:49.401Z,67.30
2022-08-16T15:55:29.790Z,67.10
2022-08-16T15:58:35.348Z,66.90
2022-08-16T16:00:52.004Z,66.80
2022-08-16T16:03:40.010Z,66.60
2022-08-16T16:06:07.308Z,66.60
2022-08-16T16:08:35.162Z,66.40
2022-08-16T16:11:07.011Z,66.60
2022-08-16T16:13:34.715Z,66.80
2022-08-16T16:16:03.430Z,67.70
2022-08-16T16:18:34.389Z,68.00
2022-08-16T16:21:06.273Z,67.90
2022-08-16T16:26:11.278Z,68.90
2022-08-16T16:29:05.990Z,69.50
2022-08-16T16:31:27.381Z,69.80
2022-08-16T16:33:56.235Z,70.80
2022-08-16T16:36:32.527Z,71.10
2022-08-16T16:39:07.266Z,70.70
2022-08-16T16:41:35.323Z,71.50
2022-08-16T16:44:05.398Z,72.40
2022-08-16T16:49:14.136Z,72.50
2022-08-16T16:51:44.728Z,72.60
2022-08-16T16:54:27.744Z,71.90
2022-08-16T16:56:55.599Z,73.10
2022-08-16T16:59:25.626Z,73.50
2022-08-16T17:02:00.404Z,72.20
2022-08-16T17:04:55.529Z,71.10
2022-08-16T17:07:24.373Z,70.00
2022-08-16T17:09:53.237Z,72.20
2022-08-16T17:12:46.904Z,70.70
2022-08-16T17:15:11.832Z,71.20
2022-08-16T17:17:59.876Z,71.20
2022-08-16T17:20:29.745Z,70.60
2022-08-16T17:22:58.319Z,70.80
2022-08-16T17:25:35.076Z,69.80
2022-08-16T17:28:58.571Z,70.50
2022-08-16T17:31:11.503Z,69.70
2022-08-16T17:33:54.670Z,70.30
2022-08-16T17:36:36.497Z,70.80
2022-08-16T17:39:04.670Z,72.00
2022-08-16T17:41:31.475Z,72.60
2022-08-16T17:44:00.256Z,72.80
2022-08-16T17:46:41.428Z,73.60
2022-08-16T17:49:14.961Z,73.90
2022-08-16T17:51:41.718Z,74.10
2022-08-16T17:54:08.441Z,73.80
2022-08-16T17:56:55.362Z,75.00
2022-08-16T18:04:45.243Z,75.70
2022-08-16T18:07:15.046Z,76.10
2022-08-16T18:09:42.066Z,77.20
2022-08-16T18:12:44.274Z,77.20
2022-08-16T18:15:13.741Z,78.30
2022-08-16T18:17:40.451Z,78.10
2022-08-16T18:20:28.641Z,77.10
2022-08-16T18:23:06.745Z,78.40
2022-08-16T18:25:43.960Z,78.30
2022-08-16T18:28:11.384Z,79.50
2022-08-16T18:30:42.079Z,79.50
2022-08-16T18:33:09.400Z,79.60
2022-08-16T18:35:36.341Z,81.20
2022-08-16T18:43:07.756Z,81.50
2022-08-16T18:45:39.352Z,82.10
2022-08-16T18:48:06.971Z,82.20
2022-08-16T18:50:59.992Z,82.40
2022-08-16T18:53:28.339Z,83.20
2022-08-16T18:55:58.127Z,83.40
2022-08-16T18:58:26.663Z,83.40
2022-08-16T19:00:57.094Z,84.00
2022-08-16T19:03:31.442Z,84.10
2022-08-16T19:06:02.846Z,84.70
2022-08-16T19:08:30.512Z,84.90
2022-08-16T19:10:57.558Z,85.20
2022-08-16T19:13:27.154Z,85.10
2022-08-16T19:15:59.996Z,86.10
2022-08-16T19:18:40.069Z,85.20
2022-08-16T19:21:10.303Z,85.80
2022-08-16T19:23:43.354Z,85.80
2022-08-16T19:26:24.684Z,86.70
2022-08-16T19:28:59.656Z,87.30
2022-08-16T19:31:33.695Z,88.30
2022-08-16T19:34:08.959Z,86.80
2022-08-16T19:36:37.696Z,86.70
2022-08-16T19:39:15.052Z,87.20
2022-08-16T19:41:55.451Z,87.10
2022-08-16T19:44:25.380Z,88.70
2022-08-16T19:46:58.144Z,87.60
2022-08-16T19:49:28.009Z,89.10
2022-08-16T19:51:57.609Z,88.20
2022-08-16T19:56:52.043Z,88.80
2022-08-16T20:02:36.248Z,89.10
2022-08-16T20:05:06.572Z,89.40
2022-08-16T20:10:05.212Z,90.10
2022-08-16T20:17:29.494Z,90.50
2022-08-16T20:20:00.873Z,90.60
2022-08-16T20:22:53.071Z,90.80
2022-08-16T20:25:33.052Z,90.90
2022-08-16T20:30:59.538Z,91.30
2022-08-16T20:35:58.647Z,91.60
2022-08-16T20:38:26.866Z,91.70
2022-08-16T20:41:02.985Z,92.00
2022-08-16T20:43:29.774Z,91.90
2022-08-16T20:45:58.901Z,92.50
2022-08-16T20:48:34.522Z,92.50
2022-08-16T20:51:13.647Z,92.80
2022-08-16T20:53:44.901Z,92.90
2022-08-16T21:06:36.579Z,93.70
2022-08-16T21:11:35.991Z,94.60
2022-08-16T21:14:06.696Z,94.90
2022-08-16T21:26:49.778Z,96.70
2022-08-16T21:29:22.594Z,96.60
2022-08-16T21:31:54.524Z,97.10
2022-08-16T21:36:55.326Z,97.80
2022-08-16T21:41:54.667Z,98.00
2022-08-16T21:44:38.733Z,98.20
2022-08-16T21:52:09.890Z,98.90
2022-08-16T21:55:06.469Z,99.00
2022-08-16T21:57:36.496Z,99.90
2022-08-16T22:00:13.009Z,99.50
2022-08-16T22:05:18.421Z,99.90
2022-08-16T22:08:02.329Z,99.90
2022-08-16T22:11:06.422Z,99.90
2022-08-16T22:13:41.075Z,99.90
2022-08-16T22:16:22.529Z,99.90
2022-08-16T22:18:52.497Z,99.90
2022-08-16T22:21:23.315Z,99.90
2022-08-16T22:23:55.232Z,99.90
2022-08-16T22:26:30.607Z,99.90
2022-08-16T22:29:06.782Z,99.90
2022-08-16T22:31:38.340Z,99.90
2022-08-16T22:39:16.125Z,99.90
2022-08-16T22:41:52.592Z,99.90
2022-08-16T22:46:51.328Z,99.90
2022-08-16T22:49:21.395Z,99.90
2022-08-16T22:54:44.211Z,99.90
2022-08-16T22:57:14.266Z,99.90
2022-08-16T22:59:41.723Z,99.90
2022-08-16T23:04:48.568Z,99.90
2022-08-16T23:12:53.137Z,99.90
2022-08-16T23:15:23.126Z,99.90
2022-08-16T23:20:25.790Z,99.90
2022-08-16T23:23:20.811Z,99.90
2022-08-16T23:25:54.966Z,99.90
2022-08-16T23:28:31.555Z,99.90
2022-08-16T23:33:31.846Z,99.90
2022-08-16T23:36:02.067Z,99.90
2022-08-16T23:38:38.482Z,99.90
2022-08-16T23:41:12.268Z,99.90
2022-08-16T23:43:44.236Z,99.90
2022-08-16T23:46:17.575Z,99.90
2022-08-16T23:49:57.924Z,99.90
2022-08-16T23:51:40.299Z,99.90
2022-08-16T23:54:16.496Z,99.90
2022-08-16T23:59:13.971Z,99.90
